createdAt,value
2022-11-22T00:00:38.163Z,-0.20
2022-11-22T00:03:15.824Z,-0.20
2022-11-22T00:05:43.265Z,-0.20
2022-11-22T00:08:10.273Z,-0.20
2022-11-22T00:10:37.681Z,-0.20
2022-11-22T00:13:04.875Z,-0.10
2022-11-22T00:15:32.165Z,-0.10
2022-11-22T00:17:59.044Z,-0.10
2022-11-22T00:20:26.589Z,-0.10
2022-11-22T00:22:53.592Z,-0.10
2022-11-22T00:25:20.811Z,0.00
2022-11-22T00:27:47.657Z,-0.10
2022-11-22T00:30:15.319Z,-0.10
2022-11-22T00:32:42.261Z,-0.10
2022-11-22T00:35:11.149Z,0.00
2022-11-22T00:37:38.407Z,0.00
2022-11-22T00:40:07.172Z,0.00
2022-11-22T00:42:34.011Z,0.00
2022-11-22T00:45:01.405Z,-0.10
2022-11-22T00:47:28.314Z,-0.10
2022-11-22T00:49:55.456Z,-0.10
2022-11-22T00:52:22.309Z,0.00
2022-11-22T00:54:54.528Z,0.00
2022-11-22T00:57:21.937Z,0.00
2022-11-22T00:59:49.167Z,-0.10
2022-11-22T01:02:16.161Z,-0.10
2022-11-22T01:04:43.435Z,0.00
2022-11-22T01:07:10.735Z,0.00
2022-11-22T01:09:38.191Z,0.00
2022-11-22T01:12:05.634Z,0.00
2022-11-22T01:14:32.955Z,0.00
2022-11-22T01:16:59.812Z,-0.10
2022-11-22T01:19:27.178Z,-0.10
2022-11-22T01:21:54.144Z,-0.10
2022-11-22T01:24:21.598Z,-0.10
2022-11-22T01:26:48.502Z,0.00
2022-11-22T01:29:15.968Z,0.00
2022-11-22T01:31:42.871Z,0.00
2022-11-22T01:34:10.130Z,0.00
2022-11-22T01:36:36.979Z,0.00
2022-11-22T01:39:04.233Z,0.00
2022-11-22T01:41:31.217Z,0.00
2022-11-22T01:43:58.373Z,-0.10
2022-11-22T01:46:34.655Z,-0.10
2022-11-22T01:49:13.077Z,-0.10
2022-11-22T01:51:44.044Z,-0.10
2022-11-22T01:54:15.810Z,-0.10
2022-11-22T01:56:46.557Z,-0.10
2022-11-22T01:59:18.707Z,-0.10
2022-11-22T02:01:45.602Z,-0.10
2022-11-22T02:04:16.469Z,-0.10
2022-11-22T02:06:56.940Z,-0.10
2022-11-22T02:09:24.092Z,-0.10
2022-11-22T02:11:53.282Z,-0.10
2022-11-22T02:14:27.434Z,-0.10
2022-11-22T02:16:54.839Z,-0.10
2022-11-22T02:19:52.761Z,-0.10
2022-11-22T02:22:32.047Z,-0.10
2022-11-22T02:25:08.945Z,-0.10
2022-11-22T02:27:35.790Z,-0.10
2022-11-22T02:30:03.081Z,-0.10
2022-11-22T02:32:30.142Z,-0.10
2022-11-22T02:34:57.255Z,-0.10
2022-11-22T02:37:27.635Z,-0.10
2022-11-22T02:40:02.810Z,-0.10
2022-11-22T02:42:31.157Z,-0.10
2022-11-22T02:44:58.311Z,-0.10
2022-11-22T02:47:25.163Z,-0.10
2022-11-22T02:49:55.385Z,-0.20
2022-11-22T02:52:22.299Z,-0.20
2022-11-22T02:54:49.730Z,-0.20
2022-11-22T02:57:16.654Z,-0.20
2022-11-22T02:59:43.817Z,-0.20
2022-11-22T03:02:10.891Z,-0.20
2022-11-22T03:04:38.182Z,-0.20
2022-11-22T03:07:05.269Z,-0.20
2022-11-22T03:09:32.775Z,-0.20
2022-11-22T03:12:00.027Z,-0.20
2022-11-22T03:14:27.341Z,-0.20
2022-11-22T03:16:54.220Z,-0.10
2022-11-22T03:19:21.479Z,-0.10
2022-11-22T03:21:48.420Z,-0.20
2022-11-22T03:24:16.160Z,-0.30
2022-11-22T03:26:50.005Z,-0.30
2022-11-22T03:29:18.351Z,-0.40
2022-11-22T03:31:45.240Z,-0.40
2022-11-22T03:34:13.095Z,-0.30
2022-11-22T03:36:40.034Z,-0.40
2022-11-22T03:39:07.395Z,-0.30
2022-11-22T03:41:34.257Z,-0.30
2022-11-22T03:44:01.426Z,-0.30
2022-11-22T03:46:28.522Z,-0.30
2022-11-22T03:48:55.678Z,-0.30
2022-11-22T03:51:23.165Z,-0.30
2022-11-22T03:53:50.285Z,-0.30
2022-11-22T03:56:17.212Z,-0.30
2022-11-22T03:58:44.320Z,-0.40
2022-11-22T04:01:16.403Z,-0.40
2022-11-22T04:03:43.995Z,-0.40
2022-11-22T04:06:10.855Z,-0.40
2022-11-22T04:08:38.053Z,-0.40
2022-11-22T04:11:05.105Z,-0.40
2022-11-22T04:13:50.755Z,-0.40
2022-11-22T04:16:17.737Z,-0.40
2022-11-22T04:18:44.844Z,-0.30
2022-11-22T04:21:30.325Z,-0.30
2022-11-22T04:24:16.233Z,-0.30
2022-11-22T04:26:43.101Z,-0.30
2022-11-22T04:29:10.690Z,-0.30
2022-11-22T04:31:56.446Z,-0.30
2022-11-22T04:34:23.794Z,-0.20
2022-11-22T04:36:50.735Z,-0.30
2022-11-22T04:39:17.960Z,-0.30
2022-11-22T04:41:44.915Z,-0.30
2022-11-22T04:44:44.243Z,-0.30
2022-11-22T04:47:36.218Z,-0.30
2022-11-22T04:50:25.124Z,-0.30
2022-11-22T04:52:54.505Z,-0.40
2022-11-22T04:55:22.149Z,-0.40
2022-11-22T04:57:50.450Z,-0.40
2022-11-22T05:00:20.544Z,-0.40
2022-11-22T05:02:47.381Z,-0.40
2022-11-22T05:05:14.751Z,-0.40
2022-11-22T05:07:41.703Z,-0.40
2022-11-22T05:10:09.580Z,-0.40
2022-11-22T05:12:36.419Z,-0.40
2022-11-22T05:15:04.457Z,-0.40
2022-11-22T05:17:31.361Z,-0.40
2022-11-22T05:19:58.487Z,-0.40
2022-11-22T05:22:46.808Z,-0.30
2022-11-22T05:25:14.046Z,-0.40
2022-11-22T05:27:40.936Z,-0.40
2022-11-22T05:30:08.489Z,-0.40
2022-11-22T05:32:35.794Z,-0.40
2022-11-22T05:35:03.155Z,-0.40
2022-11-22T05:37:30.115Z,-0.40
2022-11-22T05:39:57.276Z,-0.40
2022-11-22T05:42:24.141Z,-0.40
2022-11-22T05:44:51.258Z,-0.40
2022-11-22T05:47:18.241Z,-0.40
2022-11-22T05:49:46.191Z,-0.40
2022-11-22T05:52:13.322Z,-0.30
2022-11-22T05:54:40.467Z,-0.20
2022-11-22T05:57:07.343Z,-0.20
2022-11-22T05:59:36.045Z,-0.10
2022-11-22T06:02:04.543Z,-0.10
2022-11-22T06:04:32.123Z,-0.10
2022-11-22T06:06:58.959Z,-0.10
2022-11-22T06:09:26.143Z,0.00
2022-11-22T06:11:53.018Z,0.00
2022-11-22T06:14:20.507Z,0.00
2022-11-22T06:16:47.434Z,0.00
2022-11-22T06:19:14.990Z,0.00
2022-11-22T06:21:41.891Z,0.00
2022-11-22T06:24:10.025Z,0.00
2022-11-22T06:26:39.397Z,0.10
2022-11-22T06:29:07.117Z,0.10
2022-11-22T06:31:33.976Z,0.10
2022-11-22T06:34:01.457Z,0.10
2022-11-22T06:36:31.073Z,0.10
2022-11-22T06:38:58.480Z,0.10
2022-11-22T06:41:27.456Z,0.10
2022-11-22T06:43:58.560Z,0.10
2022-11-22T06:46:27.199Z,0.20
2022-11-22T06:48:54.515Z,0.20
2022-11-22T06:51:24.727Z,0.20
2022-11-22T06:53:55.364Z,0.20
2022-11-22T06:56:28.368Z,0.30
2022-11-22T06:58:56.220Z,0.30
2022-11-22T07:01:25.488Z,0.30
2022-11-22T07:03:58.524Z,0.30
2022-11-22T07:06:28.493Z,0.30
2022-11-22T07:08:56.508Z,0.30
2022-11-22T07:11:26.093Z,0.40
2022-11-22T07:13:55.164Z,0.40
2022-11-22T07:16:22.514Z,0.40
2022-11-22T07:18:50.398Z,0.40
2022-11-22T07:21:22.446Z,0.40
2022-11-22T07:23:52.177Z,0.50
2022-11-22T07:26:20.783Z,0.50
2022-11-22T07:28:48.643Z,0.50
2022-11-22T07:31:17.445Z,0.60
2022-11-22T07:33:45.230Z,0.60
2022-11-22T07:36:13.388Z,0.60
2022-11-22T07:38:40.805Z,0.60
2022-11-22T07:41:08.636Z,0.60
2022-11-22T07:43:36.034Z,0.60
2022-11-22T07:46:08.313Z,0.60
2022-11-22T07:48:35.748Z,0.70
2022-11-22T07:51:06.981Z,0.60
2022-11-22T07:53:35.255Z,0.60
2022-11-22T07:56:06.112Z,0.60
2022-11-22T07:58:34.953Z,0.70
2022-11-22T08:01:10.180Z,0.70
2022-11-22T08:03:38.281Z,0.70
2022-11-22T08:06:07.274Z,0.80
2022-11-22T08:08:35.351Z,0.70
2022-11-22T08:11:02.788Z,0.80
2022-11-22T08:13:31.007Z,0.80
2022-11-22T08:16:05.531Z,0.80
2022-11-22T08:18:34.493Z,0.80
2022-11-22T08:21:10.128Z,0.90
2022-11-22T08:23:38.081Z,0.90
2022-11-22T08:26:06.479Z,0.90
2022-11-22T08:28:33.913Z,0.90
2022-11-22T08:31:10.446Z,0.90
2022-11-22T08:33:37.815Z,0.90
2022-11-22T08:36:05.339Z,0.90
2022-11-22T08:38:32.670Z,0.90
2022-11-22T08:40:59.606Z,1.00
2022-11-22T08:43:26.838Z,1.00
2022-11-22T08:45:56.173Z,1.00
2022-11-22T08:48:24.297Z,1.00
2022-11-22T08:50:57.092Z,1.00
2022-11-22T08:53:24.711Z,1.10
2022-11-22T08:55:51.990Z,1.10
2022-11-22T08:58:19.487Z,1.10
2022-11-22T09:00:46.595Z,1.10
2022-11-22T09:03:13.784Z,1.10
2022-11-22T09:08:30.022Z,1.00
2022-11-22T09:11:04.233Z,1.10
2022-11-22T09:13:31.973Z,1.10
2022-11-22T09:16:03.283Z,1.10
2022-11-22T09:18:30.623Z,1.10
2022-11-22T09:21:02.138Z,1.10
2022-11-22T09:23:29.840Z,1.20
2022-11-22T09:26:01.831Z,1.30
2022-11-22T09:28:29.853Z,1.30
2022-11-22T09:31:23.241Z,1.40
2022-11-22T09:33:51.074Z,1.40
2022-11-22T09:36:23.560Z,1.50
2022-11-22T09:38:51.866Z,1.50
2022-11-22T09:41:56.929Z,1.60
2022-11-22T09:45:01.900Z,1.70
2022-11-22T09:47:54.650Z,1.70
2022-11-22T09:50:38.170Z,1.80
2022-11-22T09:53:12.204Z,1.80
2022-11-22T09:55:47.592Z,1.90
2022-11-22T09:58:35.958Z,1.90
2022-11-22T10:01:23.795Z,1.90
2022-11-22T10:04:15.714Z,2.00
2022-11-22T10:06:57.493Z,1.90
2022-11-22T10:09:39.256Z,1.90
2022-11-22T10:12:33.809Z,1.90
2022-11-22T10:15:07.382Z,1.90
2022-11-22T10:17:54.139Z,1.90
2022-11-22T10:20:25.368Z,1.80
2022-11-22T10:22:53.324Z,1.80
2022-11-22T10:25:38.372Z,1.80
2022-11-22T10:28:24.496Z,1.80
2022-11-22T10:31:16.976Z,1.90
2022-11-22T10:34:03.135Z,1.90
2022-11-22T10:36:53.367Z,2.00
2022-11-22T10:39:34.420Z,2.00
2022-11-22T10:42:27.847Z,2.00
2022-11-22T10:45:15.304Z,2.00
2022-11-22T10:48:11.412Z,1.90
2022-11-22T10:50:49.434Z,2.00
2022-11-22T10:53:24.948Z,2.10
2022-11-22T10:55:59.885Z,2.20
2022-11-22T10:58:53.450Z,2.30
2022-11-22T11:01:32.397Z,2.30
2022-11-22T11:04:00.623Z,2.30
2022-11-22T11:06:57.100Z,2.20
2022-11-22T11:12:42.296Z,2.20
2022-11-22T11:15:24.738Z,2.20
2022-11-22T11:18:00.139Z,2.20
2022-11-22T11:20:31.623Z,2.20
2022-11-22T11:23:13.769Z,2.20
2022-11-22T11:25:44.043Z,2.20
2022-11-22T11:28:16.476Z,2.20
2022-11-22T11:30:56.502Z,2.20
2022-11-22T11:33:35.969Z,2.30
2022-11-22T11:36:07.860Z,2.20
2022-11-22T11:38:52.976Z,2.20
2022-11-22T11:41:23.055Z,2.20
2022-11-22T11:43:53.919Z,2.20
2022-11-22T11:46:23.998Z,2.30
2022-11-22T11:48:53.384Z,2.30
2022-11-22T11:51:37.071Z,2.20
2022-11-22T11:54:34.704Z,2.20
2022-11-22T11:57:07.792Z,2.20
2022-11-22T11:59:37.806Z,2.20
2022-11-22T12:02:17.150Z,2.30
2022-11-22T12:04:52.239Z,2.30
2022-11-22T12:07:37.824Z,2.30
2022-11-22T12:10:47.044Z,2.20
2022-11-22T12:13:24.683Z,2.30
2022-11-22T12:16:18.515Z,2.30
2022-11-22T12:18:58.024Z,2.30
2022-11-22T12:22:29.509Z,2.40
2022-11-22T12:25:31.888Z,2.40
2022-11-22T12:28:11.971Z,2.30
2022-11-22T12:30:41.246Z,2.20
2022-11-22T12:33:14.815Z,2.20
2022-11-22T12:35:44.438Z,2.10
2022-11-22T12:38:17.352Z,2.10
2022-11-22T12:40:48.231Z,2.10
2022-11-22T12:43:24.762Z,2.20
2022-11-22T12:46:04.499Z,2.30
2022-11-22T12:48:48.390Z,2.30
2022-11-22T12:51:33.347Z,2.40
2022-11-22T12:54:09.158Z,2.30
2022-11-22T12:56:51.763Z,2.30
2022-11-22T12:59:34.644Z,2.30
2022-11-22T13:02:20.260Z,2.20
2022-11-22T13:05:09.173Z,2.10
2022-11-22T13:07:36.196Z,2.00
2022-11-22T13:10:12.068Z,1.80
2022-11-22T13:12:41.778Z,1.80
2022-11-22T13:15:13.964Z,1.70
2022-11-22T13:17:40.987Z,1.70
2022-11-22T13:20:22.126Z,1.60
2022-11-22T13:23:05.741Z,1.60
2022-11-22T13:25:47.904Z,1.70
2022-11-22T13:28:18.989Z,1.70
2022-11-22T13:31:07.875Z,1.60
2022-11-22T13:33:36.791Z,1.60
2022-11-22T13:36:32.262Z,1.50
2022-11-22T13:39:01.183Z,1.50
2022-11-22T13:41:36.539Z,1.50
2022-11-22T13:44:22.219Z,1.50
2022-11-22T13:46:56.836Z,1.50
2022-11-22T13:49:47.904Z,1.60
2022-11-22T13:52:16.221Z,1.60
2022-11-22T13:55:00.496Z,1.60
2022-11-22T13:57:41.817Z,1.60
2022-11-22T14:00:11.587Z,1.60
2022-11-22T14:02:49.080Z,1.60
2022-11-22T14:05:41.315Z,1.60
2022-11-22T14:08:29.717Z,1.60
2022-11-22T14:10:56.620Z,1.60
2022-11-22T14:13:52.455Z,1.60
2022-11-22T14:16:43.688Z,1.60
2022-11-22T14:19:31.471Z,1.60
2022-11-22T14:22:35.661Z,1.60
2022-11-22T14:25:21.416Z,1.60
2022-11-22T14:28:15.236Z,1.60
2022-11-22T14:30:50.457Z,1.60
2022-11-22T14:33:23.007Z,1.60
2022-11-22T14:36:11.410Z,1.60
2022-11-22T14:38:40.305Z,1.60
2022-11-22T14:41:26.001Z,1.60
2022-11-22T14:44:02.227Z,1.60
2022-11-22T14:46:54.541Z,1.60
2022-11-22T14:49:45.306Z,1.60
2022-11-22T14:52:25.524Z,1.60
2022-11-22T14:55:01.744Z,1.60
2022-11-22T14:57:32.609Z,1.60
2022-11-22T15:00:25.346Z,1.60
2022-11-22T15:03:25.659Z,1.60
2022-11-22T15:09:18.107Z,1.60
2022-11-22T15:09:52.668Z,1.60
2022-11-22T15:12:39.024Z,1.60
2022-11-22T15:59:41.351Z,1.70
2022-11-22T16:02:21.255Z,1.70
2022-11-22T16:06:03.488Z,1.60
2022-11-22T16:07:48.338Z,1.60
2022-11-22T16:10:33.161Z,1.60
2022-11-22T16:13:18.705Z,1.60
2022-11-22T16:16:03.854Z,1.60
2022-11-22T16:18:31.163Z,1.60
2022-11-22T16:21:20.966Z,1.60
2022-11-22T16:24:07.179Z,1.60
2022-11-22T16:26:34.416Z,1.60
2022-11-22T16:29:26.078Z,1.60
2022-11-22T16:32:03.223Z,1.60
2022-11-22T16:34:30.566Z,1.60
2022-11-22T16:36:57.861Z,1.60
2022-11-22T16:39:25.328Z,1.60
2022-11-22T16:41:52.374Z,1.60
2022-11-22T16:44:20.868Z,1.60
2022-11-22T16:46:47.869Z,1.60
2022-11-22T16:49:21.105Z,1.60
2022-11-22T16:51:50.100Z,1.60
2022-11-22T16:54:21.295Z,1.60
2022-11-22T16:56:48.160Z,1.60
2022-11-22T16:59:15.530Z,1.50
2022-11-22T17:01:43.604Z,1.60
2022-11-22T17:04:23.641Z,1.60
2022-11-22T17:06:51.400Z,1.60
2022-11-22T17:09:18.754Z,1.60
2022-11-22T17:11:46.215Z,1.60
2022-11-22T17:14:17.728Z,1.60
2022-11-22T17:16:45.947Z,1.60
2022-11-22T17:22:00.914Z,1.50
2022-11-22T17:24:29.192Z,1.60
2022-11-22T17:26:56.970Z,1.60
2022-11-22T17:32:14.602Z,1.60
2022-11-22T17:34:41.750Z,1.60
2022-11-22T17:37:12.782Z,1.50
2022-11-22T17:39:40.720Z,1.60
2022-11-22T17:42:07.852Z,1.50
2022-11-22T17:44:35.016Z,1.50
2022-11-22T17:47:02.103Z,1.50
2022-11-22T17:49:29.504Z,1.60
2022-11-22T17:51:56.604Z,1.50
2022-11-22T17:54:23.729Z,1.50
2022-11-22T17:56:50.629Z,1.50
2022-11-22T17:59:18.049Z,1.50
2022-11-22T18:01:44.983Z,1.50
2022-11-22T18:04:12.213Z,1.50
2022-11-22T18:06:39.060Z,1.50
2022-11-22T18:09:06.259Z,1.40
2022-11-22T18:11:33.213Z,1.40
2022-11-22T18:14:00.692Z,1.40
2022-11-22T18:16:28.946Z,1.50
2022-11-22T18:18:58.018Z,1.40
2022-11-22T18:21:29.517Z,1.40
2022-11-22T18:23:58.588Z,1.40
2022-11-22T18:26:41.963Z,1.40
2022-11-22T18:31:58.411Z,1.40
2022-11-22T18:34:25.899Z,1.30
2022-11-22T18:36:56.265Z,1.40
2022-11-22T18:39:24.861Z,1.40
2022-11-22T18:41:52.085Z,1.30
2022-11-22T18:44:19.367Z,1.30
2022-11-22T18:46:47.520Z,1.40
2022-11-22T18:49:15.206Z,1.40
2022-11-22T18:51:42.182Z,1.30
2022-11-22T18:54:10.453Z,1.40
2022-11-22T18:56:40.688Z,1.30
2022-11-22T18:59:14.585Z,1.30
2022-11-22T19:01:41.888Z,1.30
2022-11-22T19:04:13.989Z,1.40
2022-11-22T19:06:42.023Z,1.40
2022-11-22T19:09:09.911Z,1.30
2022-11-22T19:11:36.861Z,1.40
2022-11-22T19:14:04.565Z,1.30
2022-11-22T19:16:31.673Z,1.40
2022-11-22T19:18:59.635Z,1.40
2022-11-22T19:21:28.684Z,1.40
2022-11-22T19:23:57.030Z,1.40
2022-11-22T19:26:26.437Z,1.30
2022-11-22T19:28:55.931Z,1.30
2022-11-22T19:31:25.961Z,1.30
2022-11-22T19:33:53.539Z,1.30
2022-11-22T19:36:32.238Z,1.30
2022-11-22T19:39:02.760Z,1.40
2022-11-22T19:41:31.036Z,1.30
2022-11-22T19:43:58.251Z,1.30
2022-11-22T19:46:26.008Z,1.30
2022-11-22T19:48:55.131Z,1.30
2022-11-22T19:51:23.241Z,1.30
2022-11-22T19:53:59.546Z,1.30
2022-11-22T19:56:30.519Z,1.30
2022-11-22T19:58:59.185Z,1.30
2022-11-22T20:01:28.768Z,1.30
2022-11-22T20:04:01.939Z,1.30
2022-11-22T20:06:29.857Z,1.30
2022-11-22T20:09:19.050Z,1.30
2022-11-22T20:11:46.031Z,1.30
2022-11-22T20:14:13.433Z,1.30
2022-11-22T20:16:43.345Z,1.30
2022-11-22T20:19:12.323Z,1.30
2022-11-22T20:21:40.098Z,1.30
2022-11-22T20:24:08.020Z,1.30
2022-11-22T20:26:35.144Z,1.30
2022-11-22T20:29:05.900Z,1.30
2022-11-22T20:31:34.600Z,1.30
2022-11-22T20:34:02.907Z,1.20
2022-11-22T20:36:32.028Z,1.30
2022-11-22T20:39:01.777Z,1.30
2022-11-22T20:41:31.044Z,1.30
2022-11-22T20:43:58.198Z,1.20
2022-11-22T20:46:27.216Z,1.30
2022-11-22T20:48:55.524Z,1.30
2022-11-22T20:51:24.723Z,1.20
2022-11-22T20:53:52.428Z,1.30
2022-11-22T20:56:19.866Z,1.20
2022-11-22T20:58:47.906Z,1.20
2022-11-22T21:01:20.589Z,1.30
2022-11-22T21:03:48.463Z,1.30
2022-11-22T21:06:16.307Z,1.30
2022-11-22T21:08:47.369Z,1.30
2022-11-22T21:11:25.519Z,1.30
2022-11-22T21:13:53.503Z,1.30
2022-11-22T21:16:26.532Z,1.30
2022-11-22T21:18:55.896Z,1.30
2022-11-22T21:21:27.706Z,1.30
2022-11-22T21:23:59.620Z,1.30
2022-11-22T21:26:27.409Z,1.30
2022-11-22T21:28:55.315Z,1.30
2022-11-22T21:31:22.853Z,1.30
2022-11-22T21:33:50.727Z,1.30
2022-11-22T21:36:18.851Z,1.30
2022-11-22T21:38:46.103Z,1.30
2022-11-22T21:41:38.747Z,1.20
2022-11-22T21:44:03.882Z,1.30
2022-11-22T21:46:30.790Z,1.30
2022-11-22T21:48:58.015Z,1.20
2022-11-22T21:51:26.268Z,1.30
2022-11-22T21:54:01.122Z,1.20
2022-11-22T21:56:28.824Z,1.30
2022-11-22T21:58:56.100Z,1.20
2022-11-22T22:01:23.635Z,1.30
2022-11-22T22:03:51.186Z,1.20
2022-11-22T22:06:18.687Z,1.20
2022-11-22T22:08:45.848Z,1.20
2022-11-22T22:11:12.807Z,1.20
2022-11-22T22:13:39.996Z,1.20
2022-11-22T22:16:07.332Z,1.20
2022-11-22T22:18:36.999Z,1.30
2022-11-22T22:21:06.251Z,1.20
2022-11-22T22:23:34.353Z,1.30
2022-11-22T22:26:03.097Z,1.30
2022-11-22T22:28:31.883Z,1.20
2022-11-22T22:31:12.862Z,1.30
2022-11-22T22:33:41.764Z,1.20
2022-11-22T22:36:10.174Z,1.30
2022-11-22T22:38:38.545Z,1.20
2022-11-22T22:41:06.308Z,1.20
2022-11-22T22:43:36.041Z,1.20
2022-11-22T22:46:12.718Z,1.30
2022-11-22T22:48:41.060Z,1.30
2022-11-22T22:51:13.044Z,1.30
2022-11-22T22:53:40.925Z,1.30
2022-11-22T22:56:09.050Z,1.30
2022-11-22T22:58:36.867Z,1.30
2022-11-22T23:01:09.677Z,1.30
2022-11-22T23:03:37.899Z,1.30
2022-11-22T23:06:10.252Z,1.30
2022-11-22T23:08:38.813Z,1.30
2022-11-22T23:11:07.882Z,1.30
2022-11-22T23:13:37.144Z,1.40
2022-11-22T23:16:05.906Z,1.40
2022-11-22T23:18:36.388Z,1.40
2022-11-22T23:21:05.411Z,1.40
2022-11-22T23:23:32.735Z,1.40
2022-11-22T23:26:08.236Z,1.40
2022-11-22T23:28:35.748Z,1.40
2022-11-22T23:31:11.431Z,1.50
2022-11-22T23:33:39.212Z,1.50
2022-11-22T23:36:08.527Z,1.50
2022-11-22T23:38:36.343Z,1.50
2022-11-22T23:41:04.147Z,1.50
2022-11-22T23:43:31.461Z,1.50
2022-11-22T23:45:58.888Z,1.50
2022-11-22T23:48:27.344Z,1.50
2022-11-22T23:50:54.319Z,1.50
2022-11-22T23:53:21.867Z,1.60
2022-11-22T23:55:48.848Z,1.60
2022-11-22T23:58:15.992Z,1.60
